sensor_id;sensor_type;location;lat;lon;timestamp;temperature;humidity
17998;DHT22;9124;48.144;17.098;2023-04-01T00:00:29;9.00;98.20
17998;DHT22;9124;48.144;17.098;2023-04-01T00:04:06;9.10;98.10
17998;DHT22;9124;48.144;17.098;2023-04-01T00:07:42;9.10;98.00
17998;DHT22;9124;48.144;17.098;2023-04-01T00:11:19;9.20;98.00
17998;DHT22;9124;48.144;17.098;2023-04-01T00:14:55;9.40;98.00
17998;DHT22;9124;48.144;17.098;2023-04-01T00:18:32;9.50;97.80
17998;DHT22;9124;48.144;17.098;2023-04-01T00:22:08;9.70;97.90
17998;DHT22;9124;48.144;17.098;2023-04-01T00:25:48;9.80;97.60
17998;DHT22;9124;48.144;17.098;2023-04-01T00:29:25;10.00;97.50
17998;DHT22;9124;48.144;17.098;2023-04-01T00:33:05;10.10;97.30
17998;DHT22;9124;48.144;17.098;2023-04-01T00:36:41;10.30;96.90
17998;DHT22;9124;48.144;17.098;2023-04-01T00:40:26;10.40;96.70
17998;DHT22;9124;48.144;17.098;2023-04-01T00:44:33;10.60;96.30
17998;DHT22;9124;48.144;17.098;2023-04-01T00:48:15;10.60;95.90
17998;DHT22;9124;48.144;17.098;2023-04-01T00:51:55;10.40;95.70
17998;DHT22;9124;48.144;17.098;2023-04-01T00:55:36;10.40;95.50
17998;DHT22;9124;48.144;17.098;2023-04-01T00:59:21;10.40;95.40
17998;DHT22;9124;48.144;17.098;2023-04-01T01:02:58;10.40;95.30
17998;DHT22;9124;48.144;17.098;2023-04-01T01:06:53;10.50;95.30
17998;DHT22;9124;48.144;17.098;2023-04-01T01:10:35;10.50;95.10
17998;DHT22;9124;48.144;17.098;2023-04-01T01:14:53;10.50;95.00
17998;DHT22;9124;48.144;17.098;2023-04-01T01:18:35;10.60;94.80
17998;DHT22;9124;48.144;17.098;2023-04-01T01:30:19;10.70;94.30
17998;DHT22;9124;48.144;17.098;2023-04-01T01:38:05;10.80;94.10
17998;DHT22;9124;48.144;17.098;2023-04-01T01:41:45;10.90;93.90
17998;DHT22;9124;48.144;17.098;2023-04-01T01:45:26;10.90;93.80
17998;DHT22;9124;48.144;17.098;2023-04-01T01:49:04;10.90;93.70
17998;DHT22;9124;48.144;17.098;2023-04-01T01:52:43;11.00;93.60
17998;DHT22;9124;48.144;17.098;2023-04-01T01:56:23;10.90;93.50
17998;DHT22;9124;48.144;17.098;2023-04-01T02:00:09;10.90;93.40
17998;DHT22;9124;48.144;17.098;2023-04-01T02:03:52;10.90;93.20
17998;DHT22;9124;48.144;17.098;2023-04-01T02:07:33;10.90;93.20
17998;DHT22;9124;48.144;17.098;2023-04-01T02:11:15;10.90;93.10
17998;DHT22;9124;48.144;17.098;2023-04-01T02:15:07;10.80;93.00
17998;DHT22;9124;48.144;17.098;2023-04-01T02:18:49;10.80;93.00
17998;DHT22;9124;48.144;17.098;2023-04-01T02:22:36;10.80;93.00
17998;DHT22;9124;48.144;17.098;2023-04-01T02:26:15;10.80;92.90
17998;DHT22;9124;48.144;17.098;2023-04-01T02:29:52;10.80;92.90
17998;DHT22;9124;48.144;17.098;2023-04-01T02:33:30;10.80;92.80
17998;DHT22;9124;48.144;17.098;2023-04-01T02:37:07;10.60;92.70
17998;DHT22;9124;48.144;17.098;2023-04-01T02:40:50;10.40;92.60
17998;DHT22;9124;48.144;17.098;2023-04-01T02:44:26;10.20;92.70
17998;DHT22;9124;48.144;17.098;2023-04-01T02:48:03;10.00;92.70
17998;DHT22;9124;48.144;17.098;2023-04-01T02:51:40;9.90;92.80
17998;DHT22;9124;48.144;17.098;2023-04-01T02:55:18;9.70;92.90
17998;DHT22;9124;48.144;17.098;2023-04-01T02:58:56;9.50;93.10
17998;DHT22;9124;48.144;17.098;2023-04-01T03:02:32;9.40;93.20
17998;DHT22;9124;48.144;17.098;2023-04-01T03:06:11;9.20;93.40
17998;DHT22;9124;48.144;17.098;2023-04-01T03:09:48;9.20;93.60
17998;DHT22;9124;48.144;17.098;2023-04-01T03:13:25;9.10;93.80
17998;DHT22;9124;48.144;17.098;2023-04-01T03:17:01;9.10;94.00
17998;DHT22;9124;48.144;17.098;2023-04-01T03:20:38;9.30;94.10
17998;DHT22;9124;48.144;17.098;2023-04-01T03:24:14;9.50;94.20
17998;DHT22;9124;48.144;17.098;2023-04-01T03:27:50;9.70;94.20
17998;DHT22;9124;48.144;17.098;2023-04-01T03:31:27;9.80;94.10
17998;DHT22;9124;48.144;17.098;2023-04-01T03:35:06;9.90;94.10
17998;DHT22;9124;48.144;17.098;2023-04-01T03:38:44;9.90;94.10
17998;DHT22;9124;48.144;17.098;2023-04-01T03:42:24;9.90;94.00
17998;DHT22;9124;48.144;17.098;2023-04-01T03:46:01;9.80;93.90
17998;DHT22;9124;48.144;17.098;2023-04-01T03:49:38;9.90;93.90
17998;DHT22;9124;48.144;17.098;2023-04-01T03:53:15;10.00;93.90
17998;DHT22;9124;48.144;17.098;2023-04-01T03:56:54;10.10;93.90
17998;DHT22;9124;48.144;17.098;2023-04-01T04:00:31;10.10;93.80
17998;DHT22;9124;48.144;17.098;2023-04-01T04:04:11;10.20;93.80
17998;DHT22;9124;48.144;17.098;2023-04-01T04:07:49;10.30;93.80
17998;DHT22;9124;48.144;17.098;2023-04-01T04:11:26;10.30;93.70
17998;DHT22;9124;48.144;17.098;2023-04-01T04:15:03;10.20;93.60
17998;DHT22;9124;48.144;17.098;2023-04-01T04:18:40;10.30;93.60
17998;DHT22;9124;48.144;17.098;2023-04-01T04:22:17;10.40;93.50
17998;DHT22;9124;48.144;17.098;2023-04-01T04:25:58;10.40;93.50
17998;DHT22;9124;48.144;17.098;2023-04-01T04:29:36;10.40;93.40
17998;DHT22;9124;48.144;17.098;2023-04-01T04:33:13;10.40;93.30
17998;DHT22;9124;48.144;17.098;2023-04-01T04:36:49;10.30;93.20
17998;DHT22;9124;48.144;17.098;2023-04-01T04:40:27;10.10;93.20
17998;DHT22;9124;48.144;17.098;2023-04-01T04:44:03;10.00;93.30
17998;DHT22;9124;48.144;17.098;2023-04-01T04:47:39;10.00;93.40
17998;DHT22;9124;48.144;17.098;2023-04-01T04:51:18;10.00;93.40
17998;DHT22;9124;48.144;17.098;2023-04-01T04:54:56;10.10;93.50
17998;DHT22;9124;48.144;17.098;2023-04-01T04:58:32;10.10;93.50
17998;DHT22;9124;48.144;17.098;2023-04-01T05:02:11;10.20;93.50
17998;DHT22;9124;48.144;17.098;2023-04-01T05:05:52;10.30;93.50
17998;DHT22;9124;48.144;17.098;2023-04-01T05:09:28;10.40;93.50
17998;DHT22;9124;48.144;17.098;2023-04-01T05:13:05;10.50;93.40
17998;DHT22;9124;48.144;17.098;2023-04-01T05:16:41;10.50;93.30
17998;DHT22;9124;48.144;17.098;2023-04-01T05:20:17;10.50;93.30
17998;DHT22;9124;48.144;17.098;2023-04-01T05:23:54;10.70;93.30
17998;DHT22;9124;48.144;17.098;2023-04-01T05:27:32;10.90;93.20
17998;DHT22;9124;48.144;17.098;2023-04-01T05:31:10;11.20;92.80
17998;DHT22;9124;48.144;17.098;2023-04-01T05:34:52;11.50;92.70
17998;DHT22;9124;48.144;17.098;2023-04-01T05:38:29;11.70;92.40
17998;DHT22;9124;48.144;17.098;2023-04-01T05:42:06;11.90;92.10
17998;DHT22;9124;48.144;17.098;2023-04-01T05:45:43;11.90;91.80
17998;DHT22;9124;48.144;17.098;2023-04-01T05:49:23;11.70;91.40
17998;DHT22;9124;48.144;17.098;2023-04-01T05:53:00;11.40;91.30
17998;DHT22;9124;48.144;17.098;2023-04-01T05:56:37;11.10;91.30
17998;DHT22;9124;48.144;17.098;2023-04-01T06:00:13;10.90;91.50
17998;DHT22;9124;48.144;17.098;2023-04-01T06:03:51;10.80;91.60
17998;DHT22;9124;48.144;17.098;2023-04-01T06:07:28;10.70;91.70
17998;DHT22;9124;48.144;17.098;2023-04-01T06:11:19;10.80;91.80
17998;DHT22;9124;48.144;17.098;2023-04-01T06:15:20;11.00;91.70
17998;DHT22;9124;48.144;17.098;2023-04-01T06:19:12;11.10;91.70
17998;DHT22;9124;48.144;17.098;2023-04-01T06:27:01;11.40;91.40
17998;DHT22;9124;48.144;17.098;2023-04-01T06:35:14;12.10;90.80
17998;DHT22;9124;48.144;17.098;2023-04-01T06:43:39;16.50;90.50
17998;DHT22;9124;48.144;17.098;2023-04-01T06:47:45;21.10;85.50
17998;DHT22;9124;48.144;17.098;2023-04-01T06:51:58;24.00;76.90
17998;DHT22;9124;48.144;17.098;2023-04-01T06:56:02;25.50;68.10
17998;DHT22;9124;48.144;17.098;2023-04-01T07:00:02;24.70;62.10
17998;DHT22;9124;48.144;17.098;2023-04-01T07:03:44;24.90;60.80
17998;DHT22;9124;48.144;17.098;2023-04-01T07:07:52;25.60;58.40
17998;DHT22;9124;48.144;17.098;2023-04-01T07:11:35;23.90;54.60
17998;DHT22;9124;48.144;17.098;2023-04-01T07:15:37;21.70;55.00
17998;DHT22;9124;48.144;17.098;2023-04-01T07:19:42;23.10;55.80
17998;DHT22;9124;48.144;17.098;2023-04-01T07:23:28;24.90;54.00
17998;DHT22;9124;48.144;17.098;2023-04-01T07:27:23;27.40;53.00
17998;DHT22;9124;48.144;17.098;2023-04-01T07:31:45;29.60;51.60
17998;DHT22;9124;48.144;17.098;2023-04-01T07:48:12;21.60;46.70
17998;DHT22;9124;48.144;17.098;2023-04-01T07:52:00;19.50;48.40
17998;DHT22;9124;48.144;17.098;2023-04-01T07:55:51;18.40;49.60
17998;DHT22;9124;48.144;17.098;2023-04-01T08:16:06;16.50;51.50
17998;DHT22;9124;48.144;17.098;2023-04-01T08:23:48;16.80;52.80
17998;DHT22;9124;48.144;17.098;2023-04-01T08:27:34;17.60;52.50
17998;DHT22;9124;48.144;17.098;2023-04-01T08:35:21;17.20;51.80
17998;DHT22;9124;48.144;17.098;2023-04-01T08:42:52;17.20;52.30
17998;DHT22;9124;48.144;17.098;2023-04-01T09:15:29;28.80;46.30
17998;DHT22;9124;48.144;17.098;2023-04-01T09:23:25;28.90;41.10
17998;DHT22;9124;48.144;17.098;2023-04-01T09:27:36;26.00;40.70
17998;DHT22;9124;48.144;17.098;2023-04-01T09:35:22;22.40;42.40
17998;DHT22;9124;48.144;17.098;2023-04-01T09:39:33;24.80;43.40
17998;DHT22;9124;48.144;17.098;2023-04-01T09:43:27;23.60;42.20
17998;DHT22;9124;48.144;17.098;2023-04-01T10:15:50;17.60;46.70
17998;DHT22;9124;48.144;17.098;2023-04-01T10:20:01;18.00;46.90
17998;DHT22;9124;48.144;17.098;2023-04-01T10:32:14;17.70;47.30
17998;DHT22;9124;48.144;17.098;2023-04-01T11:04:44;17.50;48.40
17998;DHT22;9124;48.144;17.098;2023-04-01T11:09:02;17.30;48.80
17998;DHT22;9124;48.144;17.098;2023-04-01T11:24:49;19.60;48.10
17998;DHT22;9124;48.144;17.098;2023-04-01T11:29:08;19.70;47.80
17998;DHT22;9124;48.144;17.098;2023-04-01T11:33:03;19.60;47.40
17998;DHT22;9124;48.144;17.098;2023-04-01T11:45:38;18.70;46.90
17998;DHT22;9124;48.144;17.098;2023-04-01T12:10:21;19.50;46.30
17998;DHT22;9124;48.144;17.098;2023-04-01T12:14:16;19.30;46.20
17998;DHT22;9124;48.144;17.098;2023-04-01T12:18:21;19.10;46.00
17998;DHT22;9124;48.144;17.098;2023-04-01T12:22:07;19.00;46.20
17998;DHT22;9124;48.144;17.098;2023-04-01T12:34:00;18.50;46.60
17998;DHT22;9124;48.144;17.098;2023-04-01T12:37:50;18.70;46.60
17998;DHT22;9124;48.144;17.098;2023-04-01T12:49:55;18.90;45.80
17998;DHT22;9124;48.144;17.098;2023-04-01T13:17:30;19.00;45.40
17998;DHT22;9124;48.144;17.098;2023-04-01T13:41:12;18.80;44.90
17998;DHT22;9124;48.144;17.098;2023-04-01T13:45:17;18.60;45.20
17998;DHT22;9124;48.144;17.098;2023-04-01T13:49:17;18.60;45.20
17998;DHT22;9124;48.144;17.098;2023-04-01T13:53:17;18.40;45.20
17998;DHT22;9124;48.144;17.098;2023-04-01T14:05:00;17.70;45.50
17998;DHT22;9124;48.144;17.098;2023-04-01T14:08:47;17.50;45.70
17998;DHT22;9124;48.144;17.098;2023-04-01T14:12:46;17.30;45.80
17998;DHT22;9124;48.144;17.098;2023-04-01T14:20:27;16.60;46.40
17998;DHT22;9124;48.144;17.098;2023-04-01T14:40:28;17.50;47.20
17998;DHT22;9124;48.144;17.098;2023-04-01T14:44:11;17.30;47.70
17998;DHT22;9124;48.144;17.098;2023-04-01T14:48:31;17.00;47.30
17998;DHT22;9124;48.144;17.098;2023-04-01T14:52:33;16.40;47.50
17998;DHT22;9124;48.144;17.098;2023-04-01T14:56:11;16.10;48.00
17998;DHT22;9124;48.144;17.098;2023-04-01T15:00:37;16.00;48.10
17998;DHT22;9124;48.144;17.098;2023-04-01T15:20:13;16.70;48.40
17998;DHT22;9124;48.144;17.098;2023-04-01T15:24:00;16.60;48.40
17998;DHT22;9124;48.144;17.098;2023-04-01T15:43:44;16.00;48.90
17998;DHT22;9124;48.144;17.098;2023-04-01T15:58:47;15.40;50.00
17998;DHT22;9124;48.144;17.098;2023-04-01T16:06:21;15.20;50.20
17998;DHT22;9124;48.144;17.098;2023-04-01T16:10:29;15.10;50.40
17998;DHT22;9124;48.144;17.098;2023-04-01T16:22:45;14.80;51.20
17998;DHT22;9124;48.144;17.098;2023-04-01T16:30:38;14.50;51.40
17998;DHT22;9124;48.144;17.098;2023-04-01T16:45:51;14.30;51.80
17998;DHT22;9124;48.144;17.098;2023-04-01T16:49:33;14.30;52.00
17998;DHT22;9124;48.144;17.098;2023-04-01T16:53:19;14.20;52.00
17998;DHT22;9124;48.144;17.098;2023-04-01T17:00:50;14.00;52.10
17998;DHT22;9124;48.144;17.098;2023-04-01T17:04:48;13.90;52.20
17998;DHT22;9124;48.144;17.098;2023-04-01T17:12:35;13.80;52.40
17998;DHT22;9124;48.144;17.098;2023-04-01T17:20:25;13.80;52.60
17998;DHT22;9124;48.144;17.098;2023-04-01T17:24:11;13.90;52.60
17998;DHT22;9124;48.144;17.098;2023-04-01T17:32:16;14.10;52.90
17998;DHT22;9124;48.144;17.098;2023-04-01T17:35:59;14.00;53.00
17998;DHT22;9124;48.144;17.098;2023-04-01T18:10:58;13.00;55.30
17998;DHT22;9124;48.144;17.098;2023-04-01T18:19:03;13.10;55.70
17998;DHT22;9124;48.144;17.098;2023-04-01T18:27:33;13.10;56.30
17998;DHT22;9124;48.144;17.098;2023-04-01T18:31:23;13.20;56.70
17998;DHT22;9124;48.144;17.098;2023-04-01T18:39:39;13.10;57.60
17998;DHT22;9124;48.144;17.098;2023-04-01T18:47:59;12.90;57.40
17998;DHT22;9124;48.144;17.098;2023-04-01T18:51:49;12.80;57.80
17998;DHT22;9124;48.144;17.098;2023-04-01T18:55:38;12.70;58.30
17998;DHT22;9124;48.144;17.098;2023-04-01T18:59:43;12.60;58.30
17998;DHT22;9124;48.144;17.098;2023-04-01T19:04:14;12.50;58.80
17998;DHT22;9124;48.144;17.098;2023-04-01T19:07:47;12.50;59.00
17998;DHT22;9124;48.144;17.098;2023-04-01T19:11:50;12.40;59.40
17998;DHT22;9124;48.144;17.098;2023-04-01T19:19:59;12.30;59.80
17998;DHT22;9124;48.144;17.098;2023-04-01T19:28:11;12.20;60.60
17998;DHT22;9124;48.144;17.098;2023-04-01T19:39:49;12.00;61.30
17998;DHT22;9124;48.144;17.098;2023-04-01T19:43:43;11.90;61.40
17998;DHT22;9124;48.144;17.098;2023-04-01T19:51:10;11.80;62.00
17998;DHT22;9124;48.144;17.098;2023-04-01T19:58:33;11.70;62.40
17998;DHT22;9124;48.144;17.098;2023-04-01T20:10:19;11.70;63.30
17998;DHT22;9124;48.144;17.098;2023-04-01T20:21:50;11.50;63.90
17998;DHT22;9124;48.144;17.098;2023-04-01T20:25:46;11.40;63.90
17998;DHT22;9124;48.144;17.098;2023-04-01T20:29:34;11.30;64.30
17998;DHT22;9124;48.144;17.098;2023-04-01T20:33:34;11.20;64.70
17998;DHT22;9124;48.144;17.098;2023-04-01T20:49:39;10.70;66.10
17998;DHT22;9124;48.144;17.098;2023-04-01T20:53:29;10.60;66.40
17998;DHT22;9124;48.144;17.098;2023-04-01T21:47:22;10.60;69.70
17998;DHT22;9124;48.144;17.098;2023-04-01T22:06:40;10.10;71.00
17998;DHT22;9124;48.144;17.098;2023-04-01T22:10:41;10.10;71.40
17998;DHT22;9124;48.144;17.098;2023-04-01T22:31:00;10.40;72.60
17998;DHT22;9124;48.144;17.098;2023-04-01T22:42:38;10.50;73.10
17998;DHT22;9124;48.144;17.098;2023-04-01T22:46:42;10.60;73.90
17998;DHT22;9124;48.144;17.098;2023-04-01T22:54:11;10.70;73.60
17998;DHT22;9124;48.144;17.098;2023-04-01T22:57:57;10.70;73.70
17998;DHT22;9124;48.144;17.098;2023-04-01T23:01:39;10.80;73.90
17998;DHT22;9124;48.144;17.098;2023-04-01T23:05:18;10.80;74.60
17998;DHT22;9124;48.144;17.098;2023-04-01T23:12:36;10.80;74.40
17998;DHT22;9124;48.144;17.098;2023-04-01T23:16:13;10.80;74.40
17998;DHT22;9124;48.144;17.098;2023-04-01T23:24:24;10.70;74.90
17998;DHT22;9124;48.144;17.098;2023-04-01T23:32:04;10.60;75.30
17998;DHT22;9124;48.144;17.098;2023-04-01T23:35:55;10.60;75.40
17998;DHT22;9124;48.144;17.098;2023-04-01T23:39:46;10.70;75.80
17998;DHT22;9124;48.144;17.098;2023-04-01T23:43:30;10.70;76.10
17998;DHT22;9124;48.144;17.098;2023-04-01T23:47:13;10.70;76.20
17998;DHT22;9124;48.144;17.098;2023-04-01T23:50:50;10.70;76.50
17998;DHT22;9124;48.144;17.098;2023-04-01T23:54:43;10.70;76.60
